Time,TemperatureF,DewpointF,PressureIn,WindDirection,WindDirectionDegrees,WindSpeedMPH,WindSpeedGustMPH,Humidity,HourlyPrecipIn,Conditions,Clouds,dailyrainin,SoftwareType,DateUTC
2013-11-02 00:00:00,42.7,40.8,29.55,WNW,303,0.0,0.0,93,0.00,RA,,0.00,WeatherDisplay:10.37,2013-11-02 00:00:00,
2013-11-02 00:05:00,43.1,41.5,29.55,NW,320,4.0,4.0,94,0.00,RA,,0.00,WeatherDisplay:10.37,2013-11-02 00:05:00,
2013-11-02 00:10:00,43.8,42.2,29.54,WNW,296,1.2,1.2,94,0.00,CLR,,0.00,WeatherDisplay:10.37,2013-11-02 00:10:00,
2013-11-02 00:15:00,43.9,42.0,29.54,NW,305,1.2,0.0,93,0.00,CLR,,0.00,WeatherDisplay:10.37,2013-11-02 00:15:00,
2013-11-02 00:20:00,44.2,42.3,29.54,West,267,1.2,1.2,93,0.00,CLR,,0.00,WeatherDisplay:10.37,2013-11-02 00:20:00,
2013-11-02 00:25:00,43.7,41.5,29.54,NW,312,1.2,1.2,92,0.00,CLR,,0.00,WeatherDisplay:10.37,2013-11-02 00:25:00,
2013-11-02 00:30:00,43.3,41.4,29.54,NW,312,0.0,0.1,93,0.00,CLR,,0.00,WeatherDisplay:10.37,2013-11-02 00:30:00,
2013-11-02 00:35:00,42.9,40.7,29.54,NW,312,0.0,0.0,92,0.00,CLR,,0.00,WeatherDisplay:10.37,2013-11-02 00:35:00,
2013-11-02 00:40:00,43.5,42.2,29.54,SW,230,3.0,3.0,95,0.00,CLR,,0.00,WeatherDisplay:10.37,2013-11-02 00:40:00,
2013-11-02 00:45:00,44.2,42.6,29.54,SW,230,2.0,0.0,94,0.00,CLR,,0.00,WeatherDisplay:10.37,2013-11-02 00:45:00,
2013-11-02 00:50:00,44.5,42.9,29.54,WSW,251,7.0,7.0,94,0.00,CLR,,0.00,WeatherDisplay:10.37,2013-11-02 00:50:00,
2013-11-02 00:55:00,44.9,43.0,29.54,WSW,247,10.4,10.4,93,0.00,CLR,,0.00,WeatherDisplay:10.37,2013-11-02 00:55:00,
2013-11-02 01:00:00,45.1,43.2,29.54,SE,134,3.5,3.5,93,0.00,CLR,,0.00,WeatherDisplay:10.37,2013-11-02 01:00:00,
2013-11-02 01:05:00,44.3,41.8,29.53,NNW,342,2.3,2.3,91,0.00,CLR,,0.00,WeatherDisplay:10.37,2013-11-02 01:05:00,
2013-11-02 01:10:00,43.3,41.1,29.54,North,350,1.2,1.5,92,0.00,CLR,,0.00,WeatherDisplay:10.37,2013-11-02 01:10:00,
2013-11-02 01:15:00,43.0,41.1,29.54,North,359,2.3,2.3,93,0.00,CLR,,0.00,WeatherDisplay:10.37,2013-11-02 01:15:00,
2013-11-02 01:20:00,42.6,40.7,29.54,NNW,331,1.2,0.0,93,0.00,CLR,,0.00,WeatherDisplay:10.37,2013-11-02 01:20:00,
2013-11-02 01:25:00,42.9,41.3,29.53,NNW,339,2.3,2.3,94,0.00,CLR,,0.00,WeatherDisplay:10.37,2013-11-02 01:25:00,
2013-11-02 01:30:00,43.0,41.4,29.53,NNW,328,1.2,1.2,94,0.00,CLR,,0.00,WeatherDisplay:10.37,2013-11-02 01:30:00,
2013-11-02 01:35:00,43.2,41.6,29.53,NW,319,1.2,1.2,94,0.00,CLR,,0.00,WeatherDisplay:10.37,2013-11-02 01:35:00,
2013-11-02 01:40:00,43.2,41.6,29.52,NW,319,2.3,2.3,94,0.00,CLR,,0.00,WeatherDisplay:10.37,2013-11-02 01:40:00,
2013-11-02 01:45:00,43.3,41.7,29.52,NNW,339,1.2,1.2,94,0.00,CLR,,0.00,WeatherDisplay:10.37,2013-11-02 01:45:00,
2013-11-02 01:50:00,43.1,41.2,29.52,East,95,3.5,3.5,93,0.00,CLR,,0.00,WeatherDisplay:10.37,2013-11-02 01:50:00,
2013-11-02 01:55:00,43.6,42.0,29.52,ESE,119,1.2,0.0,94,0.00,CLR,,0.00,WeatherDisplay:10.37,2013-11-02 01:55:00,
2013-11-02 02:00:00,43.5,41.9,29.52,ESE,119,1.2,1.2,94,0.00,CLR,,0.00,WeatherDisplay:10.37,2013-11-02 02:00:00,
2013-11-02 02:05:00,43.5,41.6,29.52,ESE,119,1.2,1.2,93,0.00,CLR,,0.00,WeatherDisplay:10.37,2013-11-02 02:05:00,
2013-11-02 02:10:00,43.2,41.3,29.52,ESE,119,1.2,1.2,93,0.00,CLR,,0.00,WeatherDisplay:10.37,2013-11-02 02:10:00,
2013-11-02 02:15:00,43.4,41.8,29.51,WNW,298,1.2,1.2,94,0.00,CLR,,0.00,WeatherDisplay:10.37,2013-11-02 02:15:00,
2013-11-02 02:20:00,43.3,41.4,29.51,NE,38,3.5,3.5,93,0.00,CLR,,0.00,WeatherDisplay:10.37,2013-11-02 02:20:00,
2013-11-02 02:25:00,42.5,40.6,29.50,NNW,334,2.3,2.3,93,0.00,CLR,,0.00,WeatherDisplay:10.37,2013-11-02 02:25:00,
2013-11-02 02:30:00,42.1,40.2,29.51,NNW,328,1.2,1.2,93,0.00,CLR,,0.00,WeatherDisplay:10.37,2013-11-02 02:30:00,
2013-11-02 02:35:00,42.7,41.1,29.50,NNW,328,0.0,0.0,94,0.00,CLR,,0.00,WeatherDisplay:10.37,2013-11-02 02:35:00,
2013-11-02 02:40:00,42.5,40.9,29.50,WNW,303,3.5,3.5,94,0.00,CLR,,0.00,WeatherDisplay:10.37,2013-11-02 02:40:00,
2013-11-02 02:45:00,42.4,40.8,29.51,West,259,3.5,3.5,94,0.00,CLR,,0.00,WeatherDisplay:10.37,2013-11-02 02:45:00,
2013-11-02 02:50:00,42.0,40.4,29.50,NW,313,1.2,1.2,94,0.00,CLR,,0.00,WeatherDisplay:10.37,2013-11-02 02:50:00,
2013-11-02 02:55:00,42.0,40.7,29.50,NW,319,1.2,1.2,95,0.00,CLR,,0.00,WeatherDisplay:10.37,2013-11-02 02:55:00,
2013-11-02 03:00:00,42.0,40.7,29.50,NW,319,0.0,0.0,95,0.00,CLR,,0.00,WeatherDisplay:10.37,2013-11-02 03:00:00,
2013-11-02 03:05:00,41.8,40.2,29.50,NW,319,1.2,1.2,94,0.00,CLR,,0.00,WeatherDisplay:10.37,2013-11-02 03:05:00,
2013-11-02 03:10:00,41.4,39.8,29.50,North,351,1.2,1.2,94,0.00,CLR,,0.00,WeatherDisplay:10.37,2013-11-02 03:10:00,
2013-11-02 03:15:00,41.3,40.0,29.50,NNW,348,0.0,0.0,95,0.00,CLR,,0.00,WeatherDisplay:10.37,2013-11-02 03:15:00,
2013-11-02 03:20:00,41.7,40.4,29.50,ENE,69,3.5,3.5,95,0.00,CLR,,0.00,WeatherDisplay:10.37,2013-11-02 03:20:00,
2013-11-02 03:25:00,42.0,40.9,29.50,NE,36,3.5,3.5,96,0.00,CLR,,0.00,WeatherDisplay:10.37,2013-11-02 03:25:00,
2013-11-02 03:30:00,42.1,40.8,29.50,North,358,2.3,2.3,95,0.00,CLR,,0.00,WeatherDisplay:10.37,2013-11-02 03:30:00,
2013-11-02 03:35:00,42.3,41.0,29.50,NNE,20,3.5,3.5,95,0.00,CLR,,0.00,WeatherDisplay:10.37,2013-11-02 03:35:00,
2013-11-02 03:40:00,42.5,41.2,29.50,ENE,61,5.8,5.8,95,0.00,CLR,,0.00,WeatherDisplay:10.37,2013-11-02 03:40:00,
2013-11-02 03:45:00,42.7,41.1,29.50,ENE,71,3.5,3.5,94,0.00,CLR,,0.00,WeatherDisplay:10.37,2013-11-02 03:45:00,
2013-11-02 03:50:00,42.8,41.2,29.49,ENE,75,4.6,4.6,94,0.00,CLR,,0.00,WeatherDisplay:10.37,2013-11-02 03:50:00,
2013-11-02 03:55:00,42.8,40.9,29.49,ENE,67,5.0,5.0,93,0.00,CLR,,0.00,WeatherDisplay:10.37,2013-11-02 03:55:00,
2013-11-02 04:00:00,42.7,40.8,29.49,NNE,33,5.8,5.8,93,0.00,CLR,,0.00,WeatherDisplay:10.37,2013-11-02 04:00:00,
2013-11-02 04:01:00,42.7,40.8,29.49,North,352,3.5,3.5,93,0.00,CLR,,0.00,WeatherDisplay:10.37,2013-11-02 04:01:00,
2013-11-02 04:02:00,42.6,40.7,29.49,North,5,5.8,5.8,93,0.00,CLR,,0.00,WeatherDisplay:10.37,2013-11-02 04:02:00,
2013-11-02 04:07:00,42.7,40.5,29.48,NE,48,3.5,3.5,92,0.00,CLR,,0.00,WeatherDisplay:10.37,2013-11-02 04:07:00,
2013-11-02 04:12:00,42.7,40.5,29.48,NNE,30,4.0,4.0,92,0.00,CLR,,0.00,WeatherDisplay:10.37,2013-11-02 04:12:00,
2013-11-02 04:17:00,42.6,40.4,29.48,ENE,59,3.5,3.5,92,0.00,CLR,,0.00,WeatherDisplay:10.37,2013-11-02 04:17:00,
2013-11-02 04:22:00,42.4,40.2,29.48,NE,55,3.5,3.5,92,0.00,CLR,,0.00,WeatherDisplay:10.37,2013-11-02 04:22:00,
2013-11-02 04:27:00,42.5,40.6,29.47,ENE,69,8.1,8.1,93,0.00,CLR,,0.00,WeatherDisplay:10.37,2013-11-02 04:27:00,
2013-11-02 04:32:00,42.7,40.8,29.47,NE,54,5.0,5.0,93,0.00,CLR,,0.00,WeatherDisplay:10.37,2013-11-02 04:32:00,
2013-11-02 04:37:00,42.6,40.7,29.47,NE,37,4.6,4.6,93,0.00,CLR,,0.00,WeatherDisplay:10.37,2013-11-02 04:37:00,
2013-11-02 04:42:00,42.5,40.6,29.47,ENE,60,4.6,4.6,93,0.00,CLR,,0.00,WeatherDisplay:10.37,2013-11-02 04:42:00,
2013-11-02 04:47:00,42.6,40.7,29.47,ENE,65,7.0,7.0,93,0.00,CLR,,0.00,WeatherDisplay:10.37,2013-11-02 04:47:00,
2013-11-02 04:52:00,42.6,40.7,29.47,NNE,24,6.9,6.9,93,0.00,CLR,,0.00,WeatherDisplay:10.37,2013-11-02 04:52:00,
2013-11-02 04:57:00,42.7,40.8,29.46,East,91,9.2,9.2,93,0.00,CLR,,0.00,WeatherDisplay:10.37,2013-11-02 04:57:00,
2013-11-02 05:02:00,42.8,40.9,29.46,ENE,59,8.1,8.1,93,0.00,CLR,,0.00,WeatherDisplay:10.37,2013-11-02 05:02:00,
2013-11-02 05:07:00,42.8,40.9,29.46,NNE,17,8.1,8.1,93,0.00,CLR,,0.00,WeatherDisplay:10.37,2013-11-02 05:07:00,
2013-11-02 05:12:00,42.9,40.7,29.46,NE,42,5.8,5.8,92,0.00,CLR,,0.00,WeatherDisplay:10.37,2013-11-02 05:12:00,
2013-11-02 05:17:00,42.9,41.0,29.46,NE,38,4.6,4.6,93,0.00,CLR,,0.00,WeatherDisplay:10.37,2013-11-02 05:17:00,
2013-11-02 05:22:00,43.0,40.8,29.46,NE,53,4.6,4.6,92,0.00,CLR,,0.00,WeatherDisplay:10.37,2013-11-02 05:22:00,
2013-11-02 05:27:00,43.0,40.8,29.45,ENE,65,4.6,4.6,92,0.00,CLR,,0.00,WeatherDisplay:10.37,2013-11-02 05:27:00,
2013-11-02 05:32:00,43.1,40.9,29.45,ENE,61,8.1,8.1,92,0.00,CLR,,0.00,WeatherDisplay:10.37,2013-11-02 05:32:00,
2013-11-02 05:37:00,43.2,41.0,29.45,NE,51,5.0,5.0,92,0.00,CLR,,0.00,WeatherDisplay:10.37,2013-11-02 05:37:00,
2013-11-02 05:42:00,43.2,41.0,29.45,ENE,74,4.6,4.6,92,0.00,CLR,,0.00,WeatherDisplay:10.37,2013-11-02 05:42:00,
2013-11-02 05:47:00,43.2,41.0,29.44,ENE,74,5.0,5.0,92,0.00,CLR,,0.00,WeatherDisplay:10.37,2013-11-02 05:47:00,
2013-11-02 05:52:00,43.3,41.1,29.44,ENE,57,5.8,5.8,92,0.00,CLR,,0.00,WeatherDisplay:10.37,2013-11-02 05:52:00,
2013-11-02 05:57:00,43.4,41.2,29.43,East,80,6.9,6.9,92,0.00,CLR,,0.00,WeatherDisplay:10.37,2013-11-02 05:57:00,
2013-11-02 06:02:00,43.5,41.0,29.43,East,79,8.1,8.1,91,0.00,CLR,,0.00,WeatherDisplay:10.37,2013-11-02 06:02:00,
2013-11-02 06:07:00,43.5,41.0,29.42,East,84,5.8,5.8,91,0.00,CLR,,0.00,WeatherDisplay:10.37,2013-11-02 06:07:00,
2013-11-02 06:12:00,43.3,40.8,29.43,NE,55,4.0,4.0,91,0.00,CLR,,0.00,WeatherDisplay:10.37,2013-11-02 06:12:00,
2013-11-02 06:17:00,43.2,40.8,29.43,North,6,3.5,3.5,91,0.00,CLR,,0.00,WeatherDisplay:10.37,2013-11-02 06:17:00,
2013-11-02 06:22:00,43.1,40.9,29.43,NE,34,3.5,3.5,92,0.00,CLR,,0.00,WeatherDisplay:10.37,2013-11-02 06:22:00,
2013-11-02 06:27:00,43.0,40.8,29.42,ENE,69,3.5,3.5,92,0.00,CLR,,0.00,WeatherDisplay:10.37,2013-11-02 06:27:00,
2013-11-02 06:32:00,43.0,40.8,29.42,ENE,72,3.5,3.5,92,0.00,CLR,,0.00,WeatherDisplay:10.37,2013-11-02 06:32:00,
2013-11-02 06:37:00,42.7,40.5,29.42,NNW,344,1.2,1.2,92,0.00,CLR,,0.00,WeatherDisplay:10.37,2013-11-02 06:37:00,
2013-11-02 06:42:00,42.7,40.5,29.42,East,90,3.5,3.5,92,0.00,CLR,,0.00,WeatherDisplay:10.37,2013-11-02 06:42:00,
2013-11-02 06:47:00,42.7,40.5,29.41,NE,54,6.0,6.0,92,0.00,CLR,,0.00,WeatherDisplay:10.37,2013-11-02 06:47:00,
2013-11-02 06:52:00,42.5,40.6,29.41,East,94,6.9,6.9,93,0.00,CLR,,0.00,WeatherDisplay:10.37,2013-11-02 06:52:00,
2013-11-02 06:57:00,42.4,40.5,29.41,ENE,76,8.1,8.1,93,0.00,CLR,,0.00,WeatherDisplay:10.37,2013-11-02 06:57:00,
2013-11-02 07:02:00,42.2,40.6,29.41,East,84,11.5,11.5,94,0.00,CLR,,0.00,WeatherDisplay:10.37,2013-11-02 07:02:00,
2013-11-02 07:07:00,42.2,40.6,29.40,NE,45,6.9,6.9,94,0.00,CLR,,0.00,WeatherDisplay:10.37,2013-11-02 07:07:00,
2013-11-02 07:12:00,42.1,40.5,29.40,NE,55,6.9,6.9,94,0.00,CLR,,0.00,WeatherDisplay:10.37,2013-11-02 07:12:00,
2013-11-02 07:17:00,42.0,40.4,29.39,NNE,15,3.5,3.5,94,0.00,CLR,,0.00,WeatherDisplay:10.37,2013-11-02 07:17:00,
2013-11-02 07:22:00,41.8,40.2,29.39,SE,130,7.0,7.0,94,0.00,CLR,,0.00,WeatherDisplay:10.37,2013-11-02 07:22:00,
2013-11-02 07:27:00,41.9,40.3,29.39,South,186,5.8,5.8,94,0.00,CLR,,0.00,WeatherDisplay:10.37,2013-11-02 07:27:00,
2013-11-02 07:32:00,42.0,40.4,29.39,East,101,8.1,8.1,94,0.00,CLR,,0.00,WeatherDisplay:10.37,2013-11-02 07:32:00,
2013-11-02 07:37:00,42.1,40.5,29.39,East,94,5.8,5.8,94,0.00,CLR,,0.00,WeatherDisplay:10.37,2013-11-02 07:37:00,
2013-11-02 07:42:00,42.0,40.1,29.39,ESE,118,5.8,5.8,93,0.00,CLR,,0.00,WeatherDisplay:10.37,2013-11-02 07:42:00,
2013-11-02 07:47:00,42.0,40.1,29.39,ESE,105,8.1,8.1,93,0.00,CLR,,0.00,WeatherDisplay:10.37,2013-11-02 07:47:00,
2013-11-02 07:52:00,41.9,40.0,29.39,ENE,66,16.1,16.1,93,0.00,CLR,,0.00,WeatherDisplay:10.37,2013-11-02 07:52:00,
2013-11-02 07:57:00,41.9,39.7,29.40,ENE,76,11.5,11.5,92,0.00,CLR,,0.00,WeatherDisplay:10.37,2013-11-02 07:57:00,
2013-11-02 08:02:00,42.0,40.1,29.39,ENE,76,11.5,11.5,93,0.00,CLR,,0.00,WeatherDisplay:10.37,2013-11-02 08:02:00,
2013-11-02 08:07:00,42.0,39.8,29.37,East,89,9.2,9.2,92,0.00,CLR,,0.00,WeatherDisplay:10.37,2013-11-02 08:07:00,
2013-11-02 08:12:00,41.7,39.5,29.37,NE,56,11.5,11.5,92,0.00,CLR,,0.00,WeatherDisplay:10.37,2013-11-02 08:12:00,
2013-11-02 08:17:00,41.8,39.4,29.37,ENE,61,11.5,11.5,91,0.00,CLR,,0.00,WeatherDisplay:10.37,2013-11-02 08:17:00,
2013-11-02 08:22:00,41.8,39.4,29.37,ENE,72,11.5,11.5,91,0.00,CLR,,0.00,WeatherDisplay:10.37,2013-11-02 08:22:00,
2013-11-02 08:27:00,42.0,39.6,29.37,ENE,72,12.7,12.7,91,0.00,CLR,,0.00,WeatherDisplay:10.37,2013-11-02 08:27:00,
2013-11-02 08:32:00,42.2,39.5,29.37,East,90,12.7,12.7,90,0.00,CLR,,0.00,WeatherDisplay:10.37,2013-11-02 08:32:00,
2013-11-02 08:37:00,41.9,39.2,29.37,NNE,21,12.0,12.0,90,0.00,CLR,,0.00,WeatherDisplay:10.37,2013-11-02 08:37:00,
2013-11-02 08:42:00,41.7,39.0,29.36,NE,40,13.8,13.8,90,0.00,CLR,,0.00,WeatherDisplay:10.37,2013-11-02 08:42:00,
2013-11-02 08:47:00,41.6,38.9,29.36,ENE,78,16.1,16.1,90,0.00,CLR,,0.00,WeatherDisplay:10.37,2013-11-02 08:47:00,
2013-11-02 08:52:00,41.5,39.1,29.34,NNE,30,18.4,18.4,91,0.00,CLR,,0.00,WeatherDisplay:10.37,2013-11-02 08:52:00,
2013-11-02 08:57:00,41.5,39.1,29.33,ENE,65,19.6,19.6,91,0.00,CLR,,0.00,WeatherDisplay:10.37,2013-11-02 08:57:00,
2013-11-02 09:02:00,41.4,39.0,29.33,NE,53,17.3,17.3,91,0.00,CLR,,0.00,WeatherDisplay:10.37,2013-11-02 09:02:00,
2013-11-02 09:07:00,41.4,39.3,29.32,ENE,57,19.0,19.0,92,0.00,CLR,,0.00,WeatherDisplay:10.37,2013-11-02 09:07:00,
2013-11-02 09:12:00,41.4,39.3,29.32,ENE,74,15.0,15.0,92,0.00,CLR,,0.00,WeatherDisplay:10.37,2013-11-02 09:12:00,
2013-11-02 09:17:00,41.5,39.3,29.31,ENE,71,18.4,18.4,92,0.00,CLR,,0.00,WeatherDisplay:10.37,2013-11-02 09:17:00,
2013-11-02 09:22:00,41.5,39.3,29.31,NE,48,16.0,16.0,92,0.00,CLR,,0.00,WeatherDisplay:10.37,2013-11-02 09:22:00,
2013-11-02 09:27:00,41.4,39.3,29.31,ENE,60,17.3,17.3,92,0.00,CLR,,0.00,WeatherDisplay:10.37,2013-11-02 09:27:00,
2013-11-02 09:32:00,41.5,39.3,29.31,East,82,11.5,11.5,92,0.00,CLR,,0.00,WeatherDisplay:10.37,2013-11-02 09:32:00,
2013-11-02 09:37:00,41.6,39.4,29.31,NE,52,16.1,16.1,92,0.00,CLR,,0.00,WeatherDisplay:10.37,2013-11-02 09:37:00,
2013-11-02 09:42:00,41.7,39.5,29.30,ENE,60,15.0,15.0,92,0.00,CLR,,0.00,WeatherDisplay:10.37,2013-11-02 09:42:00,
2013-11-02 09:47:00,41.7,39.5,29.31,ENE,65,13.8,13.8,92,0.00,CLR,,0.00,WeatherDisplay:10.37,2013-11-02 09:47:00,
2013-11-02 09:52:00,41.6,39.4,29.30,NE,54,13.8,13.8,92,0.00,CLR,,0.00,WeatherDisplay:10.37,2013-11-02 09:52:00,
2013-11-02 09:57:00,41.5,39.3,29.29,NNE,30,11.5,11.5,92,0.00,CLR,,0.00,WeatherDisplay:10.37,2013-11-02 09:57:00,
2013-11-02 10:02:00,41.4,39.3,29.28,NE,34,17.3,17.3,92,0.00,CLR,,0.00,WeatherDisplay:10.37,2013-11-02 10:02:00,
2013-11-02 10:07:00,41.3,39.4,29.27,ENE,64,13.8,13.8,93,0.00,CLR,,0.00,WeatherDisplay:10.37,2013-11-02 10:07:00,
2013-11-02 10:12:00,41.5,39.6,29.26,ENE,69,11.5,12.0,93,0.00,CLR,,0.00,WeatherDisplay:10.37,2013-11-02 10:12:00,
2013-11-02 10:17:00,41.7,39.8,29.26,NE,53,16.1,16.1,93,0.00,CLR,,0.00,WeatherDisplay:10.37,2013-11-02 10:17:00,
2013-11-02 10:22:00,42.0,39.8,29.25,NE,40,16.1,16.1,92,0.00,CLR,,0.00,WeatherDisplay:10.37,2013-11-02 10:22:00,
2013-11-02 10:27:00,42.1,39.9,29.25,North,6,13.8,13.8,92,0.00,CLR,,0.00,WeatherDisplay:10.37,2013-11-02 10:27:00,
2013-11-02 10:32:00,42.0,39.8,29.24,East,88,15.0,15.0,92,0.00,CLR,,0.00,WeatherDisplay:10.37,2013-11-02 10:32:00,
2013-11-02 10:37:00,41.8,39.9,29.24,East,93,17.3,17.3,93,0.00,CLR,,0.00,WeatherDisplay:10.37,2013-11-02 10:37:00,
2013-11-02 10:42:00,41.8,39.9,29.23,ENE,67,16.1,16.1,93,0.00,CLR,,0.00,WeatherDisplay:10.37,2013-11-02 10:42:00,
2013-11-02 10:47:00,41.8,39.9,29.22,NE,50,15.0,15.0,93,0.00,CLR,,0.00,WeatherDisplay:10.37,2013-11-02 10:47:00,
2013-11-02 10:52:00,41.8,39.9,29.21,NE,35,19.6,19.6,93,0.00,CLR,,0.00,WeatherDisplay:10.37,2013-11-02 10:52:00,
2013-11-02 10:57:00,41.9,40.0,29.21,NE,37,19.6,19.6,93,0.00,CLR,,0.00,WeatherDisplay:10.37,2013-11-02 10:57:00,
2013-11-02 11:02:00,41.9,40.0,29.20,ENE,76,12.7,12.7,93,0.00,CLR,,0.00,WeatherDisplay:10.37,2013-11-02 11:02:00,
2013-11-02 11:07:00,41.8,39.9,29.20,ENE,65,17.3,17.3,93,0.00,CLR,,0.00,WeatherDisplay:10.37,2013-11-02 11:07:00,
2013-11-02 11:12:00,41.9,40.3,29.18,NE,43,12.7,12.7,94,0.00,CLR,,0.00,WeatherDisplay:10.37,2013-11-02 11:12:00,
2013-11-02 11:17:00,41.9,40.3,29.18,NE,53,16.0,16.0,94,0.00,CLR,,0.00,WeatherDisplay:10.37,2013-11-02 11:17:00,
2013-11-02 11:22:00,41.9,40.3,29.17,NE,34,20.0,20.0,94,0.00,CLR,,0.00,WeatherDisplay:10.37,2013-11-02 11:22:00,
2013-11-02 11:27:00,42.0,40.4,29.16,NNE,17,13.8,13.8,94,0.00,CLR,,0.00,WeatherDisplay:10.37,2013-11-02 11:27:00,
2013-11-02 11:32:00,42.1,40.5,29.15,NE,42,17.3,17.3,94,0.00,CLR,,0.00,WeatherDisplay:10.37,2013-11-02 11:32:00,
2013-11-02 11:37:00,42.2,40.6,29.14,North,3,24.2,24.2,94,0.00,CLR,,0.00,WeatherDisplay:10.37,2013-11-02 11:37:00,
2013-11-02 11:42:00,42.3,40.7,29.13,NE,53,17.3,17.3,94,0.00,CLR,,0.00,WeatherDisplay:10.37,2013-11-02 11:42:00,
2013-11-02 11:47:00,42.2,40.6,29.12,ENE,76,17.3,17.3,94,0.00,CLR,,0.00,WeatherDisplay:10.37,2013-11-02 11:47:00,
2013-11-02 11:52:00,42.2,40.6,29.12,ENE,68,17.3,17.3,94,0.00,CLR,,0.00,WeatherDisplay:10.37,2013-11-02 11:52:00,
2013-11-02 11:57:00,42.2,40.6,29.11,NE,52,20.7,20.7,94,0.00,CLR,,0.00,WeatherDisplay:10.37,2013-11-02 11:57:00,
2013-11-02 12:02:00,42.3,40.7,29.10,NNW,341,15.0,15.0,94,0.00,CLR,,0.00,WeatherDisplay:10.37,2013-11-02 12:02:00,
2013-11-02 12:07:00,42.3,40.7,29.09,NE,34,21.9,21.9,94,0.00,CLR,,0.00,WeatherDisplay:10.37,2013-11-02 12:07:00,
2013-11-02 12:12:00,42.3,40.4,29.08,ENE,69,24.0,24.0,93,0.00,CLR,,0.00,WeatherDisplay:10.37,2013-11-02 12:12:00,
2013-11-02 12:17:00,42.3,40.4,29.08,NE,51,16.1,16.1,93,0.00,CLR,,0.00,WeatherDisplay:10.37,2013-11-02 12:17:00,
2013-11-02 12:22:00,42.2,40.3,29.08,NE,37,20.0,20.0,93,0.00,CLR,,0.00,WeatherDisplay:10.37,2013-11-02 12:22:00,
2013-11-02 12:27:00,42.1,40.2,29.08,ENE,65,21.9,21.9,93,0.00,CLR,,0.00,WeatherDisplay:10.37,2013-11-02 12:27:00,
2013-11-02 12:32:00,42.2,40.6,29.07,ENE,78,17.3,17.3,94,0.00,CLR,,0.00,WeatherDisplay:10.37,2013-11-02 12:32:00,
2013-11-02 12:37:00,42.2,40.3,29.07,ENE,60,16.1,16.1,93,0.00,CLR,,0.00,WeatherDisplay:10.37,2013-11-02 12:37:00,
2013-11-02 12:42:00,42.4,40.8,29.07,NNE,21,16.1,16.1,94,0.00,CLR,,0.00,WeatherDisplay:10.37,2013-11-02 12:42:00,
2013-11-02 12:47:00,42.6,40.7,29.06,East,101,16.1,16.1,93,0.00,CLR,,0.00,WeatherDisplay:10.37,2013-11-02 12:47:00,
2013-11-02 12:52:00,42.9,41.0,29.06,East,79,21.9,21.9,93,0.00,CLR,,0.00,WeatherDisplay:10.37,2013-11-02 12:52:00,
2013-11-02 12:57:00,43.3,41.4,29.06,ENE,57,19.6,19.6,93,0.00,CLR,,0.00,WeatherDisplay:10.37,2013-11-02 12:57:00,
2013-11-02 13:02:00,43.4,41.2,29.06,ENE,68,16.1,16.1,92,0.00,CLR,,0.00,WeatherDisplay:10.37,2013-11-02 13:02:00,
2013-11-02 13:07:00,43.5,41.3,29.05,NE,52,12.7,12.7,92,0.00,CLR,,0.00,WeatherDisplay:10.37,2013-11-02 13:07:00,
2013-11-02 13:12:00,43.6,41.4,29.04,NNE,24,12.7,12.7,92,0.00,CLR,,0.00,WeatherDisplay:10.37,2013-11-02 13:12:00,
2013-11-02 13:17:00,43.6,41.4,29.03,NNE,13,13.8,13.8,92,0.00,CLR,,0.00,WeatherDisplay:10.37,2013-11-02 13:17:00,
2013-11-02 13:22:00,43.8,41.6,29.03,NE,48,18.4,18.4,92,0.00,CLR,,0.00,WeatherDisplay:10.37,2013-11-02 13:22:00,
2013-11-02 13:27:00,44.1,41.6,29.03,NNE,30,11.0,12.3,91,0.00,CLR,,0.00,WeatherDisplay:10.37,2013-11-02 13:27:00,
2013-11-02 13:32:00,44.0,41.5,29.03,ENE,57,10.4,10.4,91,0.01,RA,,0.01,WeatherDisplay:10.37,2013-11-02 13:32:00,
2013-11-02 13:37:00,44.1,41.9,29.02,ESE,115,12.7,12.7,92,0.02,RA,,0.02,WeatherDisplay:10.37,2013-11-02 13:37:00,
2013-11-02 13:42:00,44.2,41.7,29.02,NE,52,9.0,9.0,91,0.02,RA,,0.02,WeatherDisplay:10.37,2013-11-02 13:42:00,
2013-11-02 13:47:00,44.1,41.9,29.01,NE,44,5.8,5.8,92,0.03,RA,,0.03,WeatherDisplay:10.37,2013-11-02 13:47:00,
2013-11-02 13:52:00,43.8,41.6,29.01,NE,36,9.2,9.2,92,0.04,RA,,0.04,WeatherDisplay:10.37,2013-11-02 13:52:00,
2013-11-02 13:57:00,43.7,41.5,29.00,NE,48,10.4,10.4,92,0.04,RA,,0.04,WeatherDisplay:10.37,2013-11-02 13:57:00,
2013-11-02 14:02:00,43.6,41.7,29.00,NE,55,11.5,11.5,93,0.04,CLR,,0.04,WeatherDisplay:10.37,2013-11-02 14:02:00,
2013-11-02 14:07:00,43.5,41.6,28.99,NNE,28,10.4,10.4,93,0.04,CLR,,0.04,WeatherDisplay:10.37,2013-11-02 14:07:00,
2013-11-02 14:12:00,43.5,41.6,28.98,NNW,346,11.5,11.5,93,0.04,CLR,,0.04,WeatherDisplay:10.37,2013-11-02 14:12:00,
2013-11-02 14:17:00,43.5,41.6,28.97,North,359,10.4,10.4,93,0.04,CLR,,0.04,WeatherDisplay:10.37,2013-11-02 14:17:00,
2013-11-02 14:22:00,43.5,41.6,28.97,NE,40,10.4,10.4,93,0.04,CLR,,0.04,WeatherDisplay:10.37,2013-11-02 14:22:00,
2013-11-02 14:27:00,43.7,41.8,28.96,NE,52,11.5,11.5,93,0.04,CLR,,0.04,WeatherDisplay:10.37,2013-11-02 14:27:00,
2013-11-02 14:32:00,43.8,41.9,28.96,NNE,28,11.5,11.5,93,0.03,CLR,,0.04,WeatherDisplay:10.37,2013-11-02 14:32:00,
2013-11-02 14:37:00,44.0,41.8,28.95,NNE,13,13.8,13.8,92,0.02,CLR,,0.04,WeatherDisplay:10.37,2013-11-02 14:37:00,
2013-11-02 14:42:00,44.2,42.0,28.94,North,10,9.2,9.2,92,0.02,CLR,,0.04,WeatherDisplay:10.37,2013-11-02 14:42:00,
2013-11-02 14:47:00,44.3,42.1,28.93,North,353,11.5,11.5,92,0.01,CLR,,0.04,WeatherDisplay:10.37,2013-11-02 14:47:00,
2013-11-02 14:52:00,44.5,42.3,28.93,NNE,14,10.4,10.4,92,0.00,CLR,,0.04,WeatherDisplay:10.37,2013-11-02 14:52:00,
2013-11-02 14:57:00,44.6,42.4,28.93,NNE,13,9.2,9.2,92,0.00,CLR,,0.04,WeatherDisplay:10.37,2013-11-02 14:57:00,
2013-11-02 15:02:00,44.7,42.5,28.92,NNE,17,11.5,11.5,92,0.00,CLR,,0.04,WeatherDisplay:10.37,2013-11-02 15:02:00,
2013-11-02 15:07:00,44.7,42.5,28.92,NE,52,11.5,11.5,92,0.00,CLR,,0.04,WeatherDisplay:10.37,2013-11-02 15:07:00,
2013-11-02 15:12:00,44.7,42.5,28.92,NNE,29,10.4,10.4,92,0.00,CLR,,0.04,WeatherDisplay:10.37,2013-11-02 15:12:00,
2013-11-02 15:17:00,44.6,42.4,28.91,NE,49,13.8,13.8,92,0.00,CLR,,0.04,WeatherDisplay:10.37,2013-11-02 15:17:00,
2013-11-02 15:22:00,44.6,42.4,28.91,NW,324,10.4,10.4,92,0.00,CLR,,0.04,WeatherDisplay:10.37,2013-11-02 15:22:00,
2013-11-02 15:27:00,44.6,42.4,28.91,NNE,17,9.2,9.2,92,0.00,CLR,,0.04,WeatherDisplay:10.37,2013-11-02 15:27:00,
2013-11-02 15:32:00,44.6,42.4,28.90,North,355,6.9,6.9,92,0.00,CLR,,0.04,WeatherDisplay:10.37,2013-11-02 15:32:00,
2013-11-02 15:37:00,44.7,42.5,28.90,NNW,338,10.4,10.4,92,0.01,RA,,0.05,WeatherDisplay:10.37,2013-11-02 15:37:00,
2013-11-02 15:42:00,44.8,42.6,28.90,North,351,9.2,9.2,92,0.02,RA,,0.06,WeatherDisplay:10.37,2013-11-02 15:42:00,
2013-11-02 15:47:00,44.8,42.6,28.89,North,3,10.4,10.4,92,0.02,RA,,0.06,WeatherDisplay:10.37,2013-11-02 15:47:00,
2013-11-02 15:52:00,44.8,42.6,28.89,NE,42,12.7,12.7,92,0.04,RA,,0.08,WeatherDisplay:10.37,2013-11-02 15:52:00,
2013-11-02 15:57:00,45.1,42.6,28.89,ENE,63,13.8,13.8,91,0.04,RA,,0.08,WeatherDisplay:10.37,2013-11-02 15:57:00,
2013-11-02 16:02:00,45.0,42.5,28.89,NNW,342,11.5,11.5,91,0.06,RA,,0.09,WeatherDisplay:10.37,2013-11-02 16:02:00,
2013-11-02 16:07:00,44.9,42.4,28.89,NNW,340,9.2,9.2,91,0.07,RA,,0.11,WeatherDisplay:10.37,2013-11-02 16:07:00,
2013-11-02 16:12:00,44.9,42.7,28.89,NNW,332,6.9,6.9,92,0.09,RA,,0.13,WeatherDisplay:10.37,2013-11-02 16:12:00,
2013-11-02 16:17:00,44.9,42.7,28.89,NW,319,3.5,3.5,92,0.11,RA,,0.16,WeatherDisplay:10.37,2013-11-02 16:17:00,
2013-11-02 16:22:00,44.8,42.6,28.89,NW,325,2.3,2.3,92,0.13,RA,,0.18,WeatherDisplay:10.37,2013-11-02 16:22:00,
2013-11-02 16:27:00,44.7,42.5,28.88,WNW,303,2.3,0.0,92,0.15,RA,,0.19,WeatherDisplay:10.37,2013-11-02 16:27:00,
2013-11-02 16:32:00,44.6,42.7,28.88,NNW,340,2.3,2.3,93,0.17,RA,,0.21,WeatherDisplay:10.37,2013-11-02 16:32:00,
2013-11-02 16:37:00,44.5,42.6,28.88,NNW,345,1.2,1.2,93,0.17,RA,,0.23,WeatherDisplay:10.37,2013-11-02 16:37:00,
2013-11-02 16:42:00,44.5,42.6,28.88,North,1,3.5,3.5,93,0.19,RA,,0.25,WeatherDisplay:10.37,2013-11-02 16:42:00,
2013-11-02 16:47:00,44.4,42.5,28.88,NNW,343,3.5,3.5,93,0.20,RA,,0.28,WeatherDisplay:10.37,2013-11-02 16:47:00,
2013-11-02 16:52:00,44.3,42.4,28.88,NNW,337,2.3,2.3,93,0.21,RA,,0.29,WeatherDisplay:10.37,2013-11-02 16:52:00,
2013-11-02 16:57:00,44.2,42.3,28.88,NNW,340,2.3,2.3,93,0.23,RA,,0.31,WeatherDisplay:10.37,2013-11-02 16:57:00,
2013-11-02 17:02:00,44.1,42.2,28.88,NW,321,1.2,1.2,93,0.23,RA,,0.32,WeatherDisplay:10.37,2013-11-02 17:02:00,
2013-11-02 17:07:00,43.9,42.0,28.88,NW,318,1.2,1.2,93,0.23,RA,,0.34,WeatherDisplay:10.37,2013-11-02 17:07:00,
2013-11-02 17:12:00,43.7,41.8,28.88,NW,313,2.3,2.3,93,0.23,RA,,0.35,WeatherDisplay:10.37,2013-11-02 17:12:00,
2013-11-02 17:17:00,43.5,41.6,28.88,WNW,303,3.5,3.5,93,0.22,RA,,0.38,WeatherDisplay:10.37,2013-11-02 17:17:00,
2013-11-02 17:22:00,43.4,41.5,28.88,NW,305,2.3,2.3,93,0.21,RA,,0.39,WeatherDisplay:10.37,2013-11-02 17:22:00,
2013-11-02 17:27:00,43.3,41.4,28.88,WNW,296,2.0,2.0,93,0.22,RA,,0.42,WeatherDisplay:10.37,2013-11-02 17:27:00,
2013-11-02 17:32:00,43.0,41.1,28.88,WNW,298,3.0,3.0,93,0.23,RA,,0.43,WeatherDisplay:10.37,2013-11-02 17:32:00,
2013-11-02 17:37:00,43.0,41.1,28.88,NW,311,2.3,2.3,93,0.23,RA,,0.45,WeatherDisplay:10.37,2013-11-02 17:37:00,
2013-11-02 17:42:00,42.9,41.0,28.88,NW,311,1.2,1.2,93,0.21,RA,,0.46,WeatherDisplay:10.37,2013-11-02 17:42:00,
2013-11-02 17:47:00,42.7,40.8,28.88,NW,311,0.0,0.0,93,0.20,RA,,0.47,WeatherDisplay:10.37,2013-11-02 17:47:00,
2013-11-02 17:52:00,42.6,41.0,28.88,NW,311,0.0,0.0,94,0.19,RA,,0.48,WeatherDisplay:10.37,2013-11-02 17:52:00,
2013-11-02 17:57:00,42.6,41.0,28.88,NW,311,1.2,0.0,94,0.17,RA,,0.48,WeatherDisplay:10.37,2013-11-02 17:57:00,
2013-11-02 18:02:00,42.5,40.9,28.88,NW,311,2.3,2.3,94,0.17,RA,,0.49,WeatherDisplay:10.37,2013-11-02 18:02:00,
2013-11-02 18:07:00,42.5,40.9,28.88,NW,305,2.3,2.3,94,0.15,RA,,0.49,WeatherDisplay:10.37,2013-11-02 18:07:00,
2013-11-02 18:12:00,42.5,40.9,28.88,NW,305,2.3,2.3,94,0.13,CLR,,0.49,WeatherDisplay:10.37,2013-11-02 18:12:00,
2013-11-02 18:17:00,42.5,41.2,28.88,WNW,301,3.5,3.5,95,0.12,CLR,,0.49,WeatherDisplay:10.37,2013-11-02 18:17:00,
2013-11-02 18:22:00,42.5,41.2,28.88,WNW,295,3.5,3.5,95,0.10,CLR,,0.49,WeatherDisplay:10.37,2013-11-02 18:22:00,
2013-11-02 18:27:00,42.6,41.3,28.89,WNW,296,2.3,2.3,95,0.08,CLR,,0.49,WeatherDisplay:10.37,2013-11-02 18:27:00,
2013-11-02 18:32:00,42.7,41.4,28.89,NW,306,3.5,3.5,95,0.06,CLR,,0.49,WeatherDisplay:10.37,2013-11-02 18:32:00,
2013-11-02 18:37:00,42.6,41.3,28.89,NW,306,3.5,3.5,95,0.04,CLR,,0.49,WeatherDisplay:10.37,2013-11-02 18:37:00,
2013-11-02 18:42:00,42.7,41.4,28.89,WNW,296,5.8,5.8,95,0.03,CLR,,0.49,WeatherDisplay:10.37,2013-11-02 18:42:00,
2013-11-02 18:47:00,42.9,41.6,28.89,West,272,7.0,7.0,95,0.02,CLR,,0.49,WeatherDisplay:10.37,2013-11-02 18:47:00,
2013-11-02 18:52:00,43.3,41.7,28.89,WNW,296,8.0,8.0,94,0.01,CLR,,0.49,WeatherDisplay:10.37,2013-11-02 18:52:00,
2013-11-02 18:57:00,43.7,42.1,28.89,West,278,13.0,13.0,94,0.01,CLR,,0.49,WeatherDisplay:10.37,2013-11-02 18:57:00,
2013-11-02 19:02:00,44.1,42.2,28.89,WNW,289,14.0,14.0,93,0.00,CLR,,0.49,WeatherDisplay:10.37,2013-11-02 19:02:00,
2013-11-02 19:07:00,44.3,42.1,28.89,WNW,301,13.8,13.8,92,0.00,CLR,,0.49,WeatherDisplay:10.37,2013-11-02 19:07:00,
2013-11-02 19:12:00,44.3,41.8,28.90,NW,312,6.9,6.9,91,0.00,CLR,,0.49,WeatherDisplay:10.37,2013-11-02 19:12:00,
2013-11-02 19:17:00,44.1,41.6,28.90,NW,312,9.2,9.2,91,0.00,CLR,,0.49,WeatherDisplay:10.37,2013-11-02 19:17:00,
2013-11-02 19:22:00,43.9,41.7,28.90,NW,319,9.2,9.2,92,0.00,CLR,,0.49,WeatherDisplay:10.37,2013-11-02 19:22:00,
2013-11-02 19:27:00,43.7,41.5,28.90,NW,310,5.8,5.8,92,0.00,CLR,,0.49,WeatherDisplay:10.37,2013-11-02 19:27:00,
2013-11-02 19:32:00,43.7,41.8,28.91,WNW,298,8.0,8.0,93,0.00,CLR,,0.49,WeatherDisplay:10.37,2013-11-02 19:32:00,
2013-11-02 19:37:00,43.8,41.6,28.91,WNW,296,8.1,8.1,92,0.00,CLR,,0.49,WeatherDisplay:10.37,2013-11-02 19:37:00,
2013-11-02 19:42:00,43.9,41.7,28.91,WNW,302,4.6,4.9,92,0.00,CLR,,0.49,WeatherDisplay:10.37,2013-11-02 19:42:00,
2013-11-02 19:47:00,44.1,41.6,28.91,WNW,298,15.0,15.0,91,0.00,CLR,,0.49,WeatherDisplay:10.37,2013-11-02 19:47:00,
2013-11-02 19:52:00,44.4,41.7,28.91,WNW,299,13.8,13.8,90,0.00,CLR,,0.49,WeatherDisplay:10.37,2013-11-02 19:52:00,
2013-11-02 19:57:00,44.7,41.4,28.91,WNW,300,16.1,16.1,88,0.00,CLR,,0.49,WeatherDisplay:10.37,2013-11-02 19:57:00,
2013-11-02 20:02:00,44.7,41.1,28.91,NW,306,17.3,17.3,87,0.00,CLR,,0.49,WeatherDisplay:10.37,2013-11-02 20:02:00,
2013-11-02 20:07:00,44.9,41.3,28.91,WNW,296,19.6,19.6,87,0.00,CLR,,0.49,WeatherDisplay:10.37,2013-11-02 20:07:00,
2013-11-02 20:12:00,44.9,41.6,28.92,WNW,303,13.8,13.8,88,0.00,CLR,,0.49,WeatherDisplay:10.37,2013-11-02 20:12:00,
2013-11-02 20:17:00,44.9,41.0,28.92,WNW,303,19.6,19.6,86,0.00,CLR,,0.49,WeatherDisplay:10.37,2013-11-02 20:17:00,
2013-11-02 20:22:00,45.0,41.1,28.92,WNW,296,19.6,19.6,86,0.00,CLR,,0.49,WeatherDisplay:10.37,2013-11-02 20:22:00,
2013-11-02 20:27:00,44.9,41.0,28.92,WNW,298,19.6,19.6,86,0.00,CLR,,0.49,WeatherDisplay:10.37,2013-11-02 20:27:00,
2013-11-02 20:32:00,44.8,40.9,28.92,NW,324,15.0,15.0,86,0.00,CLR,,0.49,WeatherDisplay:10.37,2013-11-02 20:32:00,
2013-11-02 20:37:00,44.8,40.9,28.92,West,259,17.3,17.3,86,0.00,CLR,,0.49,WeatherDisplay:10.37,2013-11-02 20:37:00,
2013-11-02 20:42:00,45.0,41.4,28.92,NW,311,19.0,19.0,87,0.00,CLR,,0.49,WeatherDisplay:10.37,2013-11-02 20:42:00,
2013-11-02 20:47:00,44.9,41.0,28.92,NW,319,18.4,18.4,86,0.00,CLR,,0.49,WeatherDisplay:10.37,2013-11-02 20:47:00,
2013-11-02 20:52:00,44.9,41.3,28.92,WNW,292,23.0,23.0,87,0.00,CLR,,0.49,WeatherDisplay:10.37,2013-11-02 20:52:00,
2013-11-02 20:57:00,45.1,41.5,28.93,WNW,293,25.0,25.0,87,0.00,CLR,,0.49,WeatherDisplay:10.37,2013-11-02 20:57:00,
2013-11-02 21:02:00,45.2,41.3,28.93,WNW,296,26.5,26.5,86,0.00,CLR,,0.49,WeatherDisplay:10.37,2013-11-02 21:02:00,
2013-11-02 21:07:00,45.3,41.4,28.93,West,259,25.3,25.3,86,0.00,CLR,,0.49,WeatherDisplay:10.37,2013-11-02 21:07:00,
2013-11-02 21:12:00,45.3,41.7,28.93,WNW,286,21.9,21.9,87,0.00,CLR,,0.49,WeatherDisplay:10.37,2013-11-02 21:12:00,
2013-11-02 21:17:00,45.1,41.5,28.93,WNW,287,25.3,25.3,87,0.00,CLR,,0.49,WeatherDisplay:10.37,2013-11-02 21:17:00,
2013-11-02 21:22:00,44.9,41.6,28.94,West,278,20.0,20.0,88,0.00,CLR,,0.49,WeatherDisplay:10.37,2013-11-02 21:22:00,
2013-11-02 21:27:00,44.7,41.4,28.94,WNW,286,26.5,26.5,88,0.00,CLR,,0.49,WeatherDisplay:10.37,2013-11-02 21:27:00,
2013-11-02 21:32:00,44.7,41.7,28.94,WNW,294,26.5,26.5,89,0.00,CLR,,0.49,WeatherDisplay:10.37,2013-11-02 21:32:00,
2013-11-02 21:37:00,45.0,41.4,28.94,NW,309,31.1,31.1,87,0.00,CLR,,0.49,WeatherDisplay:10.37,2013-11-02 21:37:00,
2013-11-02 21:42:00,45.3,41.1,28.94,West,278,33.4,33.4,85,0.00,CLR,,0.49,WeatherDisplay:10.37,2013-11-02 21:42:00,
2013-11-02 21:47:00,45.5,41.3,28.95,WSW,257,27.6,27.6,85,0.00,CLR,,0.49,WeatherDisplay:10.37,2013-11-02 21:47:00,
2013-11-02 21:52:00,45.6,41.4,28.95,WNW,298,26.5,26.5,85,0.00,CLR,,0.49,WeatherDisplay:10.37,2013-11-02 21:52:00,
2013-11-02 21:57:00,45.5,41.3,28.96,WNW,285,25.3,25.3,85,0.00,CLR,,0.49,WeatherDisplay:10.37,2013-11-02 21:57:00,
2013-11-02 22:02:00,45.3,40.7,28.96,NW,313,27.6,27.6,84,0.00,CLR,,0.49,WeatherDisplay:10.37,2013-11-02 22:02:00,
2013-11-02 22:07:00,45.2,41.0,28.96,NW,317,25.0,25.0,85,0.00,CLR,,0.49,WeatherDisplay:10.37,2013-11-02 22:07:00,
2013-11-02 22:12:00,45.2,41.3,28.96,West,276,24.2,24.2,86,0.00,CLR,,0.49,WeatherDisplay:10.37,2013-11-02 22:12:00,
2013-11-02 22:17:00,45.1,40.6,28.97,WNW,298,32.2,32.2,84,0.00,CLR,,0.49,WeatherDisplay:10.37,2013-11-02 22:17:00,
2013-11-02 22:22:00,45.0,40.8,28.97,NW,305,27.6,27.6,85,0.00,CLR,,0.49,WeatherDisplay:10.37,2013-11-02 22:22:00,
2013-11-02 22:27:00,44.7,40.8,28.97,NW,311,27.6,27.6,86,0.00,CLR,,0.49,WeatherDisplay:10.37,2013-11-02 22:27:00,
2013-11-02 22:32:00,44.5,41.2,28.98,WNW,300,18.4,18.4,88,0.00,CLR,,0.49,WeatherDisplay:10.37,2013-11-02 22:32:00,
2013-11-02 22:37:00,44.2,40.9,28.98,WNW,293,19.6,19.6,88,0.00,CLR,,0.49,WeatherDisplay:10.37,2013-11-02 22:37:00,
2013-11-02 22:42:00,44.3,41.0,28.98,NW,321,25.3,25.3,88,0.00,CLR,,0.49,WeatherDisplay:10.37,2013-11-02 22:42:00,
2013-11-02 22:47:00,44.5,41.2,28.98,WNW,303,27.6,27.6,88,0.00,CLR,,0.49,WeatherDisplay:10.37,2013-11-02 22:47:00,
2013-11-02 22:52:00,44.4,40.8,28.98,NW,325,26.5,26.5,87,0.00,CLR,,0.49,WeatherDisplay:10.37,2013-11-02 22:52:00,
2013-11-02 22:57:00,44.5,41.2,28.98,WNW,297,23.0,23.0,88,0.00,CLR,,0.49,WeatherDisplay:10.37,2013-11-02 22:57:00,
2013-11-02 23:02:00,44.6,41.3,28.98,NW,308,29.9,29.9,88,0.00,CLR,,0.49,WeatherDisplay:10.37,2013-11-02 23:02:00,
2013-11-02 23:07:00,44.7,41.4,28.98,WNW,303,21.9,21.9,88,0.00,CLR,,0.49,WeatherDisplay:10.37,2013-11-02 23:07:00,
2013-11-02 23:12:00,44.8,41.2,28.98,WNW,290,23.0,23.0,87,0.00,CLR,,0.49,WeatherDisplay:10.37,2013-11-02 23:12:00,
2013-11-02 23:17:00,45.1,41.8,28.98,NW,311,26.5,26.5,88,0.00,CLR,,0.49,WeatherDisplay:10.37,2013-11-02 23:17:00,
2013-11-02 23:22:00,45.1,41.2,28.98,West,261,34.5,34.5,86,0.00,CLR,,0.49,WeatherDisplay:10.37,2013-11-02 23:22:00,
2013-11-02 23:27:00,45.2,41.6,28.98,NW,308,26.0,26.0,87,0.00,CLR,,0.49,WeatherDisplay:10.37,2013-11-02 23:27:00,
2013-11-02 23:32:00,45.1,41.5,28.99,NW,305,25.3,25.3,87,0.00,CLR,,0.49,WeatherDisplay:10.37,2013-11-02 23:32:00,
2013-11-02 23:37:00,45.3,41.7,28.99,West,264,25.3,25.3,87,0.00,CLR,,0.49,WeatherDisplay:10.37,2013-11-02 23:37:00,
2013-11-02 23:42:00,45.3,41.4,28.99,WNW,290,28.8,28.8,86,0.00,CLR,,0.49,WeatherDisplay:10.37,2013-11-02 23:42:00,
2013-11-02 23:47:00,45.3,41.1,29.00,WNW,291,26.5,26.5,85,0.00,CLR,,0.49,WeatherDisplay:10.37,2013-11-02 23:47:00,
2013-11-02 23:52:00,45.2,41.3,29.00,NW,311,27.6,27.6,86,0.00,CLR,,0.49,WeatherDisplay:10.37,2013-11-02 23:52:00,
2013-11-02 23:57:00,45.2,41.6,29.00,WNW,294,26.5,26.5,87,0.00,CLR,,0.49,WeatherDisplay:10.37,2013-11-02 23:57:00,